Mooretown, Canada
Current Conditions -  °F | °C
As of 2:56 AM on Wednesday 22 Oct 2014 (Local Time) from KPHN Reporting Station
Overcast Overcast  
Wind Chill: 40°   Ceiling: 1700
Heat Index: 45°   Visibility: 10mi
Dew Point: 41°   Wind: 9mph
Humidity: 87%   Direction: 20°NNE
Pressure: 30.22"   Gusts: NA
Location:  42.84°N, 82.47°W
Report Text: KPHN 220656Z AUTO 02008KT 10SM OVC017 07/05 A3022 RMK AO2
Loading
Personal Weather Stations






























Interactive Weather Map
Tropical Storm Tracking
New forecast layout! Learn more

10-Day Weather Forecast

Advertisements
Track Severe Weather on mobile